Time;durP1;ratioP1;P1;durP2;ratioP2;P2;SDS_P1;SDS_P2;PMS_P1;PMS_P2;Temp;Humidity;BMP_temperature;BMP_pressure;BME280_temperature;BME280_humidity;BME280_pressure;Samples;Min_cycle;Max_cycle;Signal;HPM_P1;HPM_P2
2022/06/08 00:01:29;;;;;;;123.68;49.30;;;;;;;13.52;100.00;100911.00;5208713;28;20534;-67
2022/06/08 00:04:03;;;;;;;116.68;47.63;;;;;;;13.58;100.00;100900.72;5198915;28;20088;-67
2022/06/08 00:06:34;;;;;;;122.63;49.65;;;;;;;13.46;100.00;100898.13;5199787;28;20041;-67
2022/06/08 00:09:05;;;;;;;109.30;47.60;;;;;;;13.42;100.00;100901.19;5201022;28;20487;-67
2022/06/08 00:11:40;;;;;;;115.00;48.85;;;;;;;13.44;100.00;100893.88;5201828;28;20029;-66
2022/06/08 00:14:13;;;;;;;112.22;48.95;;;;;;;13.43;100.00;100897.56;5198593;28;20464;-67
2022/06/08 00:16:44;;;;;;;100.88;46.97;;;;;;;13.49;100.00;100883.59;5201917;28;20116;-67
2022/06/08 00:19:16;;;;;;;142.68;52.83;;;;;;;13.48;100.00;100882.75;5208088;28;20464;-67
2022/06/08 00:21:47;;;;;;;108.63;48.63;;;;;;;13.50;100.00;100887.97;5205867;28;20053;-67
2022/06/08 00:24:19;;;;;;;136.25;53.88;;;;;;;13.50;100.00;100882.59;5202922;28;20084;-66
2022/06/08 00:26:50;;;;;;;124.82;49.83;;;;;;;13.59;100.00;100879.09;5202704;28;20030;-66
2022/06/08 00:29:21;;;;;;;129.95;54.92;;;;;;;13.56;100.00;100874.03;5203030;28;20030;-66
2022/06/08 00:31:53;;;;;;;113.57;51.75;;;;;;;13.44;100.00;100867.94;5205381;28;20626;-66
2022/06/08 00:34:24;;;;;;;124.68;52.45;;;;;;;13.47;100.00;100864.97;5204096;28;20038;-66
2022/06/08 00:36:55;;;;;;;109.68;48.28;;;;;;;13.51;100.00;100869.06;5198822;28;20022;-66
2022/06/08 00:39:27;;;;;;;118.10;52.78;;;;;;;13.31;100.00;100860.13;5199888;28;20030;-66
2022/06/08 00:42:05;;;;;;;101.63;48.15;;;;;;;13.37;100.00;100858.72;5204180;28;20057;-66
2022/06/08 00:44:36;;;;;;;113.05;52.55;;;;;;;13.26;100.00;100856.97;5204174;28;20107;-66
2022/06/08 00:47:11;;;;;;;87.18;45.75;;;;;;;13.34;100.00;100854.47;5206722;28;20472;-66
2022/06/08 00:49:52;;;;;;;115.32;51.42;;;;;;;13.25;100.00;100849.91;5203957;28;20029;-66
2022/06/08 00:52:25;;;;;;;107.03;49.88;;;;;;;13.16;100.00;100857.91;5207875;28;20056;-66
2022/06/08 00:54:59;;;;;;;103.43;48.97;;;;;;;13.16;100.00;100849.88;5208178;28;20025;-66
2022/06/08 00:57:36;;;;;;;114.35;49.10;;;;;;;13.18;100.00;100854.09;5198260;28;20040;-66
2022/06/08 01:00:11;;;;;;;87.78;44.00;;;;;;;13.20;100.00;100856.66;5198639;28;20058;-66
2022/06/08 01:02:43;;;;;;;96.85;47.08;;;;;;;13.15;100.00;100846.31;5202026;28;20577;-66
2022/06/08 01:05:41;;;;;;;131.32;51.75;;;;;;;13.07;100.00;100840.78;5198434;28;20026;-66
2022/06/08 01:08:36;;;;;;;82.63;43.88;;;;;;;13.16;100.00;100841.84;5197336;28;20030;-66
2022/06/08 01:11:34;;;;;;;98.75;45.10;;;;;;;13.12;100.00;100838.56;5195456;28;20029;-66
2022/06/08 01:14:10;;;;;;;110.22;47.22;;;;;;;13.07;100.00;100832.75;5204378;28;20034;-66
2022/06/08 01:16:47;;;;;;;94.75;43.75;;;;;;;13.06;100.00;100831.91;5200082;28;20081;-66
2022/06/08 01:19:18;;;;;;;139.00;49.85;;;;;;;12.99;100.00;100828.06;5198957;28;20121;-66
2022/06/08 01:21:52;;;;;;;88.90;43.70;;;;;;;13.00;100.00;100818.19;5202366;28;20030;-66
2022/06/08 01:24:25;;;;;;;87.32;44.00;;;;;;;12.94;100.00;100815.09;5199296;28;20488;-66
2022/06/08 01:27:21;;;;;;;89.32;42.92;;;;;;;12.92;100.00;100817.06;5200193;28;20113;-67
2022/06/08 01:30:24;;;;;;;104.90;45.97;;;;;;;12.92;100.00;100810.84;5204555;28;20036;-67
2022/06/08 01:33:49;;;;;;;96.03;43.83;;;;;;;12.81;100.00;100810.91;5202788;28;20121;-67
2022/06/08 01:36:52;;;;;;;85.73;42.20;;;;;;;12.82;100.00;100801.91;5206800;28;20037;-67
2022/06/08 01:39:38;;;;;;;104.90;47.28;;;;;;;12.71;100.00;100801.03;5197416;28;20052;-67
2022/06/08 01:42:44;;;;;;;85.63;41.40;;;;;;;12.82;100.00;100791.22;5201762;28;20510;-67
2022/06/08 01:45:53;;;;;;;91.90;42.42;;;;;;;12.83;100.00;100792.88;5200199;28;20038;-67
2022/06/08 01:48:33;;;;;;;98.18;42.33;;;;;;;12.83;100.00;100780.38;5201263;28;20022;-67
2022/06/08 01:51:23;;;;;;;84.60;40.47;;;;;;;12.84;100.00;100781.22;5210372;28;20037;-67
2022/06/08 01:54:20;;;;;;;97.95;42.08;;;;;;;12.73;100.00;100784.81;5200364;28;20064;-66
2022/06/08 01:57:14;;;;;;;86.53;39.70;;;;;;;12.71;100.00;100770.72;5203833;28;20065;-67
2022/06/08 02:00:02;;;;;;;94.72;39.95;;;;;;;12.77;100.00;100774.69;5209670;28;20431;-67
2022/06/08 02:02:58;;;;;;;72.28;36.00;;;;;;;12.86;100.00;100772.03;5208892;28;20197;-67
2022/06/08 02:06:03;;;;;;;82.55;36.85;;;;;;;12.83;100.00;100760.75;5204966;28;20029;-67
2022/06/08 02:08:39;;;;;;;73.38;34.92;;;;;;;12.77;100.00;100756.81;5202098;28;20113;-67
2022/06/08 02:11:25;;;;;;;79.05;35.72;;;;;;;12.74;100.00;100749.03;5209172;28;20049;-67
2022/06/08 02:14:09;;;;;;;70.47;34.13;;;;;;;12.66;100.00;100749.69;5207574;28;20030;-67
2022/06/08 02:16:40;;;;;;;59.00;30.83;;;;;;;12.78;100.00;100746.94;5206720;28;20880;-67
2022/06/08 02:19:16;;;;;;;63.70;31.90;;;;;;;12.78;100.00;100733.56;5209090;28;20028;-67
2022/06/08 02:21:56;;;;;;;65.45;31.90;;;;;;;12.72;100.00;100732.25;5200912;28;21386;-67
2022/06/08 02:24:36;;;;;;;67.18;32.15;;;;;;;12.69;100.00;100730.69;5201830;28;20583;-67
2022/06/08 02:27:15;;;;;;;62.47;30.23;;;;;;;12.58;100.00;100720.09;5218309;28;20539;-67
2022/06/08 02:29:57;;;;;;;61.67;31.05;;;;;;;12.60;100.00;100718.13;5200450;28;20041;-67
2022/06/08 02:35:43;;;;;;;57.58;29.10;;;;;;;12.55;100.00;100717.66;5201084;28;20105;-67
2022/06/08 02:38:18;;;;;;;62.88;30.23;;;;;;;12.53;100.00;100714.28;5206824;28;20672;-67
2022/06/08 02:40:55;;;;;;;77.53;31.15;;;;;;;12.48;100.00;100720.03;5207218;28;20041;-67
2022/06/08 02:43:39;;;;;;;63.67;29.00;;;;;;;12.41;100.00;100710.84;5205830;28;20404;-67
2022/06/08 02:46:19;;;;;;;54.38;26.75;;;;;;;12.50;100.00;100703.81;5207567;28;20030;-67
2022/06/08 02:48:51;;;;;;;62.63;29.17;;;;;;;12.32;100.00;100707.13;5207506;28;21358;-67
2022/06/08 02:51:29;;;;;;;87.20;32.00;;;;;;;12.38;100.00;100705.75;5208473;28;20029;-67
2022/06/08 02:54:12;;;;;;;63.20;27.98;;;;;;;12.31;100.00;100699.22;5207027;28;20056;-67
2022/06/08 02:57:16;;;;;;;66.07;27.33;;;;;;;12.34;100.00;100694.47;5197821;28;20052;-67
2022/06/08 02:59:57;;;;;;;59.30;26.50;;;;;;;12.33;100.00;100697.25;5205716;28;20034;-67
2022/06/08 03:02:36;;;;;;;52.67;26.13;;;;;;;12.32;100.00;100685.72;5203473;28;20029;-67
2022/06/08 03:05:13;;;;;;;47.38;24.15;;;;;;;12.37;100.00;100688.00;5197822;28;20038;-67
2022/06/08 03:07:50;;;;;;;40.30;23.80;;;;;;;12.37;100.00;100685.34;5199692;28;20029;-67
2022/06/08 03:10:22;;;;;;;45.00;23.90;;;;;;;12.34;100.00;100685.59;5200605;28;20052;-67
2022/06/08 03:13:11;;;;;;;44.17;22.83;;;;;;;12.38;100.00;100683.50;5204377;28;20110;-67
2022/06/08 03:15:52;;;;;;;38.75;22.63;;;;;;;12.26;100.00;100683.56;5208887;28;20108;-67
2022/06/08 03:18:25;;;;;;;40.78;22.42;;;;;;;12.30;100.00;100687.69;5199537;28;20045;-67
2022/06/08 03:20:59;;;;;;;36.20;21.38;;;;;;;12.32;100.00;100684.88;5198441;28;20518;-67
2022/06/08 03:23:31;;;;;;;34.92;20.40;;;;;;;12.30;100.00;100684.16;5194047;28;20025;-67
2022/06/08 03:26:02;;;;;;;37.95;20.88;;;;;;;12.23;100.00;100681.16;5198202;28;20584;-67
2022/06/08 03:28:33;;;;;;;32.67;19.45;;;;;;;12.28;100.00;100676.25;5203306;28;20131;-67
2022/06/08 03:31:04;;;;;;;39.33;20.05;;;;;;;12.27;100.00;100682.63;5203160;28;20156;-67
2022/06/08 03:33:36;;;;;;;36.70;20.25;;;;;;;12.18;100.00;100685.19;5204719;28;20113;-67
2022/06/08 03:36:08;;;;;;;34.03;19.75;;;;;;;12.23;100.00;100688.34;5207479;28;20080;-67
2022/06/08 03:38:42;;;;;;;37.70;20.33;;;;;;;12.18;100.00;100688.75;5204793;28;20113;-67
2022/06/08 03:41:13;;;;;;;33.65;19.65;;;;;;;12.39;100.00;100685.19;5204480;28;20021;-67
2022/06/08 03:43:44;;;;;;;36.83;21.05;;;;;;;12.34;100.00;100689.09;5204061;28;20033;-67
2022/06/08 03:46:16;;;;;;;34.92;19.42;;;;;;;12.36;100.00;100684.47;5206462;28;20032;-67
2022/06/08 03:48:48;;;;;;;35.83;19.20;;;;;;;12.50;100.00;100694.00;5200806;28;20076;-67
2022/06/08 03:51:20;;;;;;;37.40;20.27;;;;;;;12.52;100.00;100685.81;5202556;28;20112;-67
2022/06/08 03:53:58;;;;;;;40.50;20.92;;;;;;;12.56;100.00;100692.63;5205464;28;20045;-67
2022/06/08 03:56:32;;;;;;;40.22;20.25;;;;;;;12.58;100.00;100692.44;5202724;28;20033;-67
2022/06/08 03:59:03;;;;;;;34.28;18.90;;;;;;;12.65;100.00;100693.63;5201069;28;20072;-67
2022/06/08 04:01:35;;;;;;;35.63;19.83;;;;;;;12.75;100.00;100692.69;5200609;28;20033;-67
2022/06/08 04:04:06;;;;;;;36.45;19.77;;;;;;;12.80;100.00;100688.75;5204967;28;20032;-67
2022/06/08 04:06:38;;;;;;;31.50;18.30;;;;;;;12.85;100.00;100690.03;5202255;28;20026;-67
2022/06/08 04:09:12;;;;;;;33.00;18.35;;;;;;;12.88;100.00;100680.88;5201173;28;20030;-67
2022/06/08 04:11:43;;;;;;;30.45;17.27;;;;;;;12.93;100.00;100678.66;5203341;28;20392;-67
2022/06/08 04:14:14;;;;;;;31.98;19.15;;;;;;;12.93;100.00;100676.81;5204564;28;20026;-67
2022/06/08 04:16:46;;;;;;;28.02;17.10;;;;;;;13.10;100.00;100666.44;5202303;28;20634;-67
2022/06/08 04:19:19;;;;;;;30.42;17.40;;;;;;;13.06;100.00;100673.00;5207917;28;20025;-67
2022/06/08 04:21:50;;;;;;;27.98;17.08;;;;;;;13.14;100.00;100670.53;5201887;28;20022;-67
2022/06/08 04:24:23;;;;;;;30.05;18.23;;;;;;;13.14;100.00;100667.84;5204730;28;20117;-67
2022/06/08 04:26:55;;;;;;;24.75;16.00;;;;;;;13.24;100.00;100665.16;5203390;28;20424;-67
2022/06/08 04:29:26;;;;;;;26.73;15.85;;;;;;;13.22;100.00;100664.47;5200251;28;20026;-67
2022/06/08 04:31:57;;;;;;;22.80;15.90;;;;;;;13.25;100.00;100667.72;5199108;28;20030;-67
2022/06/08 04:34:29;;;;;;;27.00;16.42;;;;;;;13.24;100.00;100666.00;5202681;28;20022;-67
2022/06/08 04:37:00;;;;;;;26.27;17.10;;;;;;;13.29;100.00;100662.94;5200015;28;20513;-67
2022/06/08 04:39:31;;;;;;;30.10;17.08;;;;;;;13.29;100.00;100665.59;5208959;28;20030;-67
2022/06/08 04:42:04;;;;;;;26.75;17.58;;;;;;;13.33;100.00;100659.84;5198623;28;20022;-67
2022/06/08 04:44:36;;;;;;;30.75;17.13;;;;;;;13.41;100.00;100648.44;5197208;28;20141;-67
2022/06/08 04:47:08;;;;;;;26.17;16.65;;;;;;;13.45;100.00;100651.69;5200114;28;20084;-67
2022/06/08 04:49:39;;;;;;;28.30;16.92;;;;;;;13.46;100.00;100642.63;5206929;28;20037;-67
2022/06/08 04:52:10;;;;;;;24.38;15.60;;;;;;;13.64;100.00;100634.75;5209021;28;20056;-67
2022/06/08 04:54:42;;;;;;;25.02;15.85;;;;;;;13.67;100.00;100640.69;5202884;28;20024;-66
2022/06/08 04:57:13;;;;;;;25.45;16.02;;;;;;;13.72;100.00;100634.88;5197795;28;20021;-67
2022/06/08 04:59:45;;;;;;;23.80;15.55;;;;;;;13.72;100.00;100632.19;5207190;28;20446;-66
2022/06/08 05:02:42;;;;;;;21.63;14.40;;;;;;;13.80;100.00;100632.31;5205016;28;20030;-67
2022/06/08 05:05:08;;;;;;;21.20;14.63;;;;;;;13.81;100.00;100634.00;5213664;28;22271;-66
2022/06/08 05:07:39;;;;;;;23.15;15.10;;;;;;;13.78;100.00;100631.59;5200143;28;20117;-67
2022/06/08 05:10:11;;;;;;;20.63;13.38;;;;;;;13.88;100.00;100637.81;5201529;28;20018;-67
2022/06/08 05:12:43;;;;;;;20.17;13.45;;;;;;;13.86;100.00;100629.03;5202076;28;20161;-67
2022/06/08 05:15:23;;;;;;;20.42;13.27;;;;;;;13.85;100.00;100629.22;5208663;28;20033;-67
2022/06/08 05:17:56;;;;;;;19.33;12.90;;;;;;;13.92;100.00;100623.13;5200357;28;20132;-67
2022/06/08 05:20:28;;;;;;;19.10;12.35;;;;;;;13.92;100.00;100617.75;5206043;28;20100;-67
2022/06/08 05:23:00;;;;;;;17.13;12.40;;;;;;;13.94;100.00;100609.59;5207055;28;20479;-67
2022/06/08 05:25:35;;;;;;;18.75;13.55;;;;;;;14.07;100.00;100606.56;5210866;28;20105;-67
2022/06/08 05:28:08;;;;;;;20.08;12.52;;;;;;;14.17;100.00;100607.38;5203590;28;20041;-66
2022/06/08 05:30:42;;;;;;;17.92;11.93;;;;;;;14.25;100.00;100606.66;5216700;28;20037;-67
2022/06/08 05:33:13;;;;;;;17.52;11.85;;;;;;;14.21;100.00;100603.41;5203377;28;20356;-67
2022/06/08 05:35:44;;;;;;;18.02;12.63;;;;;;;14.18;100.00;100601.00;5202337;28;20026;-67
2022/06/08 05:38:16;;;;;;;17.45;11.98;;;;;;;14.28;100.00;100595.59;5198799;28;20053;-66
2022/06/08 05:40:48;;;;;;;15.95;11.35;;;;;;;14.28;100.00;100593.75;5203026;28;20076;-67
2022/06/08 05:43:19;;;;;;;15.00;11.60;;;;;;;14.31;100.00;100590.78;5204884;28;20067;-66
2022/06/08 05:45:51;;;;;;;18.88;11.98;;;;;;;14.31;100.00;100589.97;5202135;28;20121;-67
2022/06/08 05:48:22;;;;;;;14.70;11.00;;;;;;;14.38;100.00;100583.00;5200695;28;20128;-67
2022/06/08 05:50:54;;;;;;;18.98;11.20;;;;;;;14.43;100.00;100587.91;5205988;28;20034;-66
2022/06/08 05:53:25;;;;;;;18.00;11.45;;;;;;;14.54;100.00;100579.66;5204037;28;20041;-66
2022/06/08 05:55:56;;;;;;;18.70;11.60;;;;;;;14.61;100.00;100570.06;5202879;28;20388;-67
2022/06/08 05:58:28;;;;;;;16.13;11.32;;;;;;;14.65;100.00;100559.84;5206114;28;20038;-67
2022/06/08 06:01:00;;;;;;;17.13;11.18;;;;;;;14.66;100.00;100566.91;5208766;28;20104;-67
2022/06/08 06:03:31;;;;;;;15.88;10.95;;;;;;;14.66;100.00;100567.75;5202253;28;20030;-66
2022/06/08 06:06:03;;;;;;;15.55;10.93;;;;;;;14.67;100.00;100556.03;5204283;28;20115;-66
2022/06/08 06:08:34;;;;;;;14.75;9.50;;;;;;;14.67;100.00;100558.72;5212572;28;20037;-66
2022/06/08 06:11:05;;;;;;;14.05;9.30;;;;;;;14.77;100.00;100568.56;5207950;28;20106;-66
2022/06/08 06:13:37;;;;;;;12.60;9.40;;;;;;;14.82;100.00;100560.84;5204391;28;20484;-66
2022/06/08 06:16:09;;;;;;;12.93;9.60;;;;;;;14.84;100.00;100569.59;5203168;28;20026;-66
2022/06/08 06:18:40;;;;;;;14.90;9.40;;;;;;;14.93;100.00;100571.38;5200218;28;20129;-66
2022/06/08 06:21:17;;;;;;;13.38;10.27;;;;;;;14.90;100.00;100569.88;5210889;28;20050;-66
2022/06/08 06:23:48;;;;;;;12.13;9.45;;;;;;;14.87;100.00;100570.16;5204486;28;20184;-66
2022/06/08 06:26:20;;;;;;;11.18;8.10;;;;;;;14.88;100.00;100571.00;5203470;28;20376;-66
2022/06/08 06:28:51;;;;;;;11.95;8.30;;;;;;;14.86;100.00;100570.31;5202159;28;20630;-66
2022/06/08 06:31:34;;;;;;;11.00;8.38;;;;;;;14.91;100.00;100581.44;5202703;28;20029;-66
2022/06/08 06:34:05;;;;;;;10.60;8.25;;;;;;;14.97;100.00;100571.94;5200594;28;20445;-66
2022/06/08 06:36:37;;;;;;;12.00;8.07;;;;;;;14.97;100.00;100577.31;5205200;28;20032;-66
2022/06/08 06:39:09;;;;;;;11.13;8.73;;;;;;;15.02;100.00;100577.69;5212720;28;20034;-66
2022/06/08 06:41:42;;;;;;;11.43;8.38;;;;;;;15.10;100.00;100567.03;5201762;28;20021;-65
2022/06/08 06:44:14;;;;;;;14.37;8.53;;;;;;;15.26;100.00;100567.19;5206828;28;20042;-65
2022/06/08 06:46:45;;;;;;;12.75;9.15;;;;;;;15.45;100.00;100568.00;5204245;28;20436;-66
2022/06/08 06:49:16;;;;;;;11.68;8.38;;;;;;;15.56;100.00;100561.53;5211063;28;20033;-65
2022/06/08 06:51:48;;;;;;;11.57;8.10;;;;;;;15.65;100.00;100553.34;5201472;28;20503;-66
2022/06/08 06:54:19;;;;;;;9.43;7.68;;;;;;;15.73;100.00;100562.50;5206584;28;20628;-65
2022/06/08 06:56:51;;;;;;;12.40;7.78;;;;;;;15.91;100.00;100549.84;5210562;28;20475;-65
2022/06/08 06:59:22;;;;;;;13.90;8.77;;;;;;;16.01;100.00;100547.03;5213842;28;20113;-65
2022/06/08 07:01:53;;;;;;;11.07;7.25;;;;;;;16.11;100.00;100558.53;5208440;28;20117;-65
2022/06/08 07:04:25;;;;;;;9.40;6.20;;;;;;;16.11;100.00;100552.28;5205761;28;20029;-65
2022/06/08 07:06:56;;;;;;;8.63;5.15;;;;;;;16.18;100.00;100553.34;5209354;28;20041;-65
2022/06/08 07:09:28;;;;;;;9.40;4.93;;;;;;;16.15;100.00;100543.75;5210279;28;20245;-65
2022/06/08 07:11:59;;;;;;;7.82;4.30;;;;;;;16.23;100.00;100554.53;5208107;28;20026;-65
2022/06/08 07:14:31;;;;;;;7.78;4.45;;;;;;;16.21;100.00;100550.34;5209233;28;20097;-64
2022/06/08 07:17:02;;;;;;;8.00;4.55;;;;;;;16.40;100.00;100546.56;5207988;28;20184;-65
2022/06/08 07:19:35;;;;;;;7.28;4.35;;;;;;;16.36;100.00;100547.88;5208152;28;20492;-65
2022/06/08 07:22:06;;;;;;;8.18;4.18;;;;;;;16.37;100.00;100547.69;5211652;28;20133;-65
2022/06/08 07:24:38;;;;;;;9.75;4.10;;;;;;;16.44;100.00;100545.22;5209123;28;20069;-64
2022/06/08 07:27:09;;;;;;;6.40;3.90;;;;;;;16.42;100.00;100534.59;5209941;28;20526;-64
2022/06/08 07:29:41;;;;;;;6.55;3.78;;;;;;;16.43;100.00;100540.81;5212764;28;20076;-65
2022/06/08 07:32:12;;;;;;;7.20;4.43;;;;;;;16.44;100.00;100537.13;5209828;28;20512;-64
2022/06/08 07:34:43;;;;;;;7.03;3.80;;;;;;;16.56;100.00;100538.50;5208592;28;20341;-64
2022/06/08 07:37:15;;;;;;;8.10;3.65;;;;;;;16.72;100.00;100542.25;5210719;28;20030;-64
2022/06/08 07:39:46;;;;;;;8.57;3.80;;;;;;;16.98;100.00;100534.91;5210295;28;20026;-65
2022/06/08 07:42:17;;;;;;;9.88;3.78;;;;;;;17.12;100.00;100524.47;5206039;28;20044;-65
2022/06/08 07:44:49;;;;;;;7.70;3.45;;;;;;;17.18;100.00;100534.59;5206050;28;20037;-64
2022/06/08 07:47:20;;;;;;;7.05;3.55;;;;;;;17.36;100.00;100534.44;5207710;28;20456;-64
2022/06/08 07:49:51;;;;;;;9.07;3.78;;;;;;;17.48;100.00;100532.22;5212223;28;20392;-65
2022/06/08 07:52:23;;;;;;;9.00;3.65;;;;;;;17.57;100.00;100534.75;5211354;28;20475;-65
2022/06/08 07:54:56;;;;;;;9.25;3.47;;;;;;;17.69;100.00;100539.78;5212794;28;20058;-65
2022/06/08 07:57:29;;;;;;;5.97;3.28;;;;;;;17.68;100.00;100536.25;5210865;28;20036;-65
2022/06/08 08:00:00;;;;;;;7.22;2.92;;;;;;;17.91;100.00;100540.94;5211747;28;20036;-64
2022/06/08 08:02:32;;;;;;;8.48;3.42;;;;;;;17.94;100.00;100540.59;5206747;28;20057;-64
2022/06/08 08:05:04;;;;;;;9.70;3.40;;;;;;;17.89;100.00;100540.28;5209560;28;20068;-64
2022/06/08 08:07:36;;;;;;;5.80;2.85;;;;;;;17.94;100.00;100540.59;5206820;28;20060;-64
2022/06/08 08:10:16;;;;;;;7.43;3.55;;;;;;;18.05;100.00;100548.34;5214416;28;20030;-64
2022/06/08 08:12:48;;;;;;;7.45;2.97;;;;;;;18.06;100.00;100541.91;5209949;28;20087;-64
2022/06/08 08:15:19;;;;;;;7.65;2.90;;;;;;;18.04;100.00;100541.25;5210535;28;20468;-64
2022/06/08 08:17:51;;;;;;;6.90;3.00;;;;;;;18.12;100.00;100543.06;5207296;28;20077;-64
2022/06/08 08:20:24;;;;;;;6.30;3.22;;;;;;;17.92;100.00;100543.47;5210511;28;20030;-64
2022/06/08 08:22:57;;;;;;;7.85;3.40;;;;;;;17.86;100.00;100536.06;5207034;28;20108;-64
2022/06/08 08:25:29;;;;;;;9.55;3.85;;;;;;;17.85;100.00;100537.06;5211115;28;20057;-63
2022/06/08 08:28:00;;;;;;;7.70;3.42;;;;;;;17.78;100.00;100539.59;5208731;28;20033;-64
2022/06/08 08:30:32;;;;;;;7.75;3.25;;;;;;;17.76;100.00;100538.09;5208863;28;20049;-64
2022/06/08 08:33:03;;;;;;;8.95;3.10;;;;;;;17.58;100.00;100547.19;5209255;28;20025;-64
2022/06/08 08:35:35;;;;;;;7.07;2.95;;;;;;;17.65;100.00;100539.28;5206281;28;20463;-64
2022/06/08 08:38:06;;;;;;;11.90;3.85;;;;;;;17.60;100.00;100541.66;5209062;28;20032;-64
2022/06/08 08:40:38;;;;;;;5.60;3.15;;;;;;;17.67;100.00;100533.72;5208506;28;20050;-64
2022/06/08 08:43:14;;;;;;;8.82;3.38;;;;;;;17.58;100.00;100547.19;5211813;28;20084;-63
2022/06/08 08:46:25;;;;;;;9.23;3.22;;;;;;;17.67;100.00;100536.44;5209383;28;20542;-64
2022/06/08 08:49:10;;;;;;;12.10;3.50;;;;;;;17.68;100.00;100530.00;5205006;28;20038;-64
2022/06/08 08:51:45;;;;;;;8.32;3.40;;;;;;;17.76;100.00;100540.78;5208773;28;20109;-64
2022/06/08 08:54:22;;;;;;;7.25;3.13;;;;;;;17.74;100.00;100535.56;5209956;28;20486;-64
2022/06/08 08:57:00;;;;;;;5.75;2.95;;;;;;;17.78;100.00;100536.06;5206244;28;20044;-64
2022/06/08 08:59:32;;;;;;;6.95;3.10;;;;;;;17.82;100.00;100532.84;5207800;28;20030;-65
2022/06/08 09:02:13;;;;;;;7.85;2.80;;;;;;;17.79;100.00;100535.88;5210139;28;20057;-65
2022/06/08 09:04:47;;;;;;;10.45;3.30;;;;;;;17.67;100.00;100547.22;5206927;28;20044;-64
2022/06/08 09:07:19;;;;;;;;;;;;;;;17.77;100.00;100540.59;5210534;28;20051;-65
2022/06/08 09:09:51;;;;;;;7.93;3.38;;;;;;;17.59;100.00;100548.91;5201266;28;20296;-64
2022/06/08 09:12:22;;;;;;;9.63;3.22;;;;;;;17.61;100.00;100546.03;5206050;28;20030;-64
2022/06/08 09:14:59;;;;;;;7.13;2.90;;;;;;;17.52;100.00;100547.91;5207264;28;20037;-64
2022/06/08 09:17:36;;;;;;;9.77;3.20;;;;;;;17.46;100.00;100545.03;5213239;28;20080;-64
2022/06/08 09:20:17;;;;;;;7.22;3.65;;;;;;;17.38;100.00;100541.34;5210728;28;20030;-65
2022/06/08 09:22:52;;;;;;;6.55;3.33;;;;;;;17.38;100.00;100540.50;5213430;28;20439;-64
2022/06/08 09:25:30;;;;;;;9.40;4.15;;;;;;;17.29;100.00;100541.50;5201086;28;20093;-64
2022/06/08 09:28:20;;;;;;;7.03;3.28;;;;;;;17.23;100.00;100537.63;5212752;28;20030;-64
2022/06/08 09:30:53;;;;;;;7.40;3.30;;;;;;;17.10;100.00;100538.13;5201100;28;20547;-65
2022/06/08 09:33:42;;;;;;;7.20;3.58;;;;;;;17.20;100.00;100543.34;5211223;28;20551;-65
2022/06/08 09:36:26;;;;;;;7.72;3.67;;;;;;;17.19;100.00;100538.97;5201994;28;20079;-65
2022/06/08 09:38:58;;;;;;;10.98;4.00;;;;;;;17.16;100.00;100536.59;5202928;28;20151;-65
2022/06/08 09:41:57;;;;;;;7.38;3.70;;;;;;;17.15;100.00;100551.94;5209740;28;20049;-65
2022/06/08 09:44:58;;;;;;;9.55;3.72;;;;;;;17.07;100.00;100548.41;5205062;28;20050;-66
2022/06/08 09:51:26;;;;;;;9.07;3.92;;;;;;;16.97;100.00;100554.81;5210103;28;20392;-67
2022/06/08 09:54:44;;;;;;;11.18;3.88;;;;;;;16.94;100.00;100551.59;5220383;28;20045;-67
2022/06/08 09:57:34;;;;;;;9.80;3.80;;;;;;;16.77;100.00;100554.22;5204033;28;20034;-67
2022/06/08 10:00:27;;;;;;;8.38;3.67;;;;;;;16.72;100.00;100555.72;5203993;28;20042;-67
2022/06/08 10:03:21;;;;;;;8.55;2.85;;;;;;;16.52;100.00;100556.00;5213729;28;20591;-68
2022/06/08 10:06:20;;;;;;;12.67;3.67;;;;;;;16.43;100.00;100544.38;5217634;28;21009;-69
2022/06/08 10:09:10;;;;;;;16.15;4.65;;;;;;;16.43;100.00;100549.75;5216876;28;20087;-69
2022/06/08 10:12:14;;;;;;;15.32;4.97;;;;;;;16.47;100.00;100552.94;5210951;28;20471;-69
2022/06/08 10:14:53;;;;;;;9.77;4.32;;;;;;;16.34;100.00;100545.34;5209037;28;20033;-69
2022/06/08 10:17:37;;;;;;;14.10;4.68;;;;;;;16.39;100.00;100545.69;5209024;28;20156;-69
2022/06/08 10:20:11;;;;;;;20.00;6.32;;;;;;;16.37;100.00;100550.38;5216238;28;20029;-69
2022/06/08 10:22:45;;;;;;;13.98;5.60;;;;;;;16.40;100.00;100551.94;5216115;28;20062;-69
2022/06/08 10:25:21;;;;;;;12.50;5.15;;;;;;;16.41;100.00;100549.06;5213505;28;20038;-69
2022/06/08 10:27:59;;;;;;;11.63;5.13;;;;;;;16.35;100.00;100549.72;5204578;28;20038;-69
2022/06/08 10:30:50;;;;;;;13.23;5.15;;;;;;;16.27;100.00;100553.22;5211663;28;20030;-69
2022/06/08 10:33:58;;;;;;;21.67;5.32;;;;;;;16.25;100.00;100541.75;5201139;28;20791;-69
2022/06/08 10:36:32;;;;;;;12.27;4.70;;;;;;;16.34;100.00;100553.44;5207943;28;20045;-69
2022/06/08 10:39:04;;;;;;;16.92;5.22;;;;;;;16.25;100.00;100546.31;5211069;28;20030;-69
2022/06/08 10:44:44;;;;;;;11.48;5.15;;;;;;;16.25;100.00;100535.56;5208613;28;20053;-69
2022/06/08 10:47:18;;;;;;;14.25;5.75;;;;;;;16.20;100.00;100535.19;5201793;28;20116;-69
2022/06/08 10:49:54;;;;;;;;;;;;;;;16.31;100.00;100547.53;5212999;28;20483;-69
2022/06/08 10:52:48;;;;;;;12.32;6.00;;;;;;;16.27;100.00;100542.44;5210381;28;20274;-69
2022/06/08 10:55:19;;;;;;;14.30;6.90;;;;;;;16.26;100.00;100540.78;5202317;28;20038;-69
2022/06/08 10:57:50;;;;;;;11.98;6.15;;;;;;;16.20;100.00;100532.50;5210270;28;20033;-69
2022/06/08 11:00:47;;;;;;;11.43;5.22;;;;;;;16.16;100.00;100540.03;5214934;28;20030;-70
2022/06/08 11:03:33;;;;;;;11.02;4.65;;;;;;;16.21;100.00;100540.41;5211620;28;20361;-69
2022/06/08 11:06:30;;;;;;;13.35;5.00;;;;;;;16.19;100.00;100534.34;5209581;28;20080;-69
2022/06/08 11:09:03;;;;;;;10.75;4.63;;;;;;;16.19;100.00;100525.44;5211494;28;20042;-70
2022/06/08 11:11:49;;;;;;;10.98;5.10;;;;;;;16.24;100.00;100526.63;5199506;28;20034;-69
2022/06/08 11:14:52;;;;;;;14.90;5.45;;;;;;;16.32;100.00;100516.88;5211338;28;20392;-69
2022/06/08 11:17:25;;;;;;;13.48;4.68;;;;;;;16.19;100.00;100512.81;5211059;28;20055;-69
2022/06/08 11:20:26;;;;;;;10.53;4.47;;;;;;;16.11;100.00;100520.84;5198411;28;20047;-69
2022/06/08 11:23:26;;;;;;;15.38;4.55;;;;;;;16.00;100.00;100507.69;5200670;28;20642;-70
2022/06/08 11:26:12;;;;;;;9.55;4.25;;;;;;;15.90;100.00;100506.94;5209450;28;20046;-70
2022/06/08 11:28:47;;;;;;;16.73;4.70;;;;;;;15.90;100.00;100509.63;5211837;28;20032;-70
2022/06/08 11:31:28;;;;;;;10.93;3.83;;;;;;;15.88;100.00;100502.59;5211190;28;20111;-70
2022/06/08 11:34:16;;;;;;;11.45;4.78;;;;;;;15.90;100.00;100493.50;5201004;28;20045;-69
2022/06/08 11:36:50;;;;;;;16.02;5.20;;;;;;;15.95;100.00;100499.25;5206816;28;20138;-69
2022/06/08 11:39:42;;;;;;;11.18;5.03;;;;;;;15.96;100.00;100491.00;5205371;28;20137;-69
2022/06/08 11:42:27;;;;;;;12.00;5.15;;;;;;;15.98;100.00;100483.63;5210414;28;20480;-69
2022/06/08 11:45:07;;;;;;;13.20;5.13;;;;;;;15.89;100.00;100484.59;5211842;28;20299;-69
2022/06/08 11:47:45;;;;;;;11.63;4.65;;;;;;;15.63;100.00;100484.59;5210950;28;20052;-69
2022/06/08 11:50:21;;;;;;;10.35;3.92;;;;;;;15.55;100.00;100480.03;5200146;28;20029;-69
2022/06/08 11:53:14;;;;;;;10.90;4.60;;;;;;;15.62;100.00;100478.34;5203984;28;20098;-69
2022/06/08 11:56:30;;;;;;;17.45;5.53;;;;;;;15.58;100.00;100477.00;5210180;28;20461;-70
2022/06/08 11:59:05;;;;;;;10.65;4.78;;;;;;;15.60;100.00;100474.16;5211018;28;20095;-69
2022/06/08 12:01:36;;;;;;;12.60;4.63;;;;;;;15.42;100.00;100480.44;5211656;28;20112;-69
2022/06/08 12:04:15;;;;;;;10.75;4.40;;;;;;;15.55;100.00;100473.78;5209165;28;20395;-70